Terminal Aerodrome Forecast
Issued by NWS

Home | Current Version | Previous Version | Text Only | Print | Product List | Glossary On
Versions: 1 2 3 4 5 6 7 8 9 10 11 12 13 14
575
FTUS44 KMAF 200520
TAFHOB
TAF
KHOB 200520Z 2006/2106 15008KT P6SM SCT040 BKN100
      TEMPO 2006/2009 VRB20G30KT 4SM TSRA OVC025CB
     FM200900 15008KT P6SM BKN010
     FM201600 18012G19KT P6SM FEW200=

USA.gov is the U.S. government's official web portal to all federal, state and local government web resources and services.